sensor_id;sensor_type;location;lat;lon;timestamp;temperature;humidity
1614;DHT22;800;48.824;9.346;2022-12-10T00:01:24;8.50;59.60
1614;DHT22;800;48.824;9.346;2022-12-10T00:03:50;8.50;59.60
1614;DHT22;800;48.824;9.346;2022-12-10T00:06:21;8.50;59.50
1614;DHT22;800;48.824;9.346;2022-12-10T00:08:47;8.50;59.70
1614;DHT22;800;48.824;9.346;2022-12-10T00:11:15;8.50;59.80
1614;DHT22;800;48.824;9.346;2022-12-10T00:13:41;8.50;60.10
1614;DHT22;800;48.824;9.346;2022-12-10T00:16:08;8.50;60.10
1614;DHT22;800;48.824;9.346;2022-12-10T00:18:35;8.50;60.00
1614;DHT22;800;48.824;9.346;2022-12-10T00:21:09;8.50;59.80
1614;DHT22;800;48.824;9.346;2022-12-10T00:23:36;8.50;59.90
1614;DHT22;800;48.824;9.346;2022-12-10T00:26:19;8.50;59.80
1614;DHT22;800;48.824;9.346;2022-12-10T00:28:45;8.50;59.90
1614;DHT22;800;48.824;9.346;2022-12-10T00:31:14;8.50;59.90
1614;DHT22;800;48.824;9.346;2022-12-10T00:33:40;8.50;60.00
1614;DHT22;800;48.824;9.346;2022-12-10T00:36:22;8.50;60.40
1614;DHT22;800;48.824;9.346;2022-12-10T00:38:49;8.40;60.60
1614;DHT22;800;48.824;9.346;2022-12-10T00:41:15;8.40;60.70
1614;DHT22;800;48.824;9.346;2022-12-10T00:43:41;8.40;60.90
1614;DHT22;800;48.824;9.346;2022-12-10T00:46:07;8.40;60.80
1614;DHT22;800;48.824;9.346;2022-12-10T00:48:33;8.40;60.90
1614;DHT22;800;48.824;9.346;2022-12-10T00:51:09;8.40;60.90
1614;DHT22;800;48.824;9.346;2022-12-10T00:53:36;8.50;61.10
1614;DHT22;800;48.824;9.346;2022-12-10T00:56:03;8.50;61.00
1614;DHT22;800;48.824;9.346;2022-12-10T00:58:31;8.40;60.80
1614;DHT22;800;48.824;9.346;2022-12-10T01:01:34;8.50;61.10
1614;DHT22;800;48.824;9.346;2022-12-10T01:04:05;8.50;61.10
1614;DHT22;800;48.824;9.346;2022-12-10T01:06:40;8.40;61.20
1614;DHT22;800;48.824;9.346;2022-12-10T01:09:08;8.50;61.40
1614;DHT22;800;48.824;9.346;2022-12-10T01:11:38;8.50;62.10
1614;DHT22;800;48.824;9.346;2022-12-10T01:14:06;8.50;61.10
1614;DHT22;800;48.824;9.346;2022-12-10T01:16:32;8.60;61.10
1614;DHT22;800;48.824;9.346;2022-12-10T01:18:58;8.60;60.90
1614;DHT22;800;48.824;9.346;2022-12-10T01:21:25;8.60;60.80
1614;DHT22;800;48.824;9.346;2022-12-10T01:23:52;8.60;60.60
1614;DHT22;800;48.824;9.346;2022-12-10T01:26:23;8.70;60.60
1614;DHT22;800;48.824;9.346;2022-12-10T01:28:50;8.60;60.30
1614;DHT22;800;48.824;9.346;2022-12-10T01:31:26;8.70;60.40
1614;DHT22;800;48.824;9.346;2022-12-10T01:33:52;8.70;60.20
1614;DHT22;800;48.824;9.346;2022-12-10T01:36:23;8.60;60.10
1614;DHT22;800;48.824;9.346;2022-12-10T01:38:50;8.60;60.10
1614;DHT22;800;48.824;9.346;2022-12-10T01:41:19;8.60;60.00
1614;DHT22;800;48.824;9.346;2022-12-10T01:46:32;8.70;60.20
1614;DHT22;800;48.824;9.346;2022-12-10T01:48:59;8.60;60.10
1614;DHT22;800;48.824;9.346;2022-12-10T01:51:28;8.60;60.10
1614;DHT22;800;48.824;9.346;2022-12-10T01:53:54;8.60;60.10
1614;DHT22;800;48.824;9.346;2022-12-10T01:56:20;8.60;60.10
1614;DHT22;800;48.824;9.346;2022-12-10T01:58:48;8.60;60.10
1614;DHT22;800;48.824;9.346;2022-12-10T02:06:38;8.50;60.10
1614;DHT22;800;48.824;9.346;2022-12-10T02:09:19;8.50;60.10
1614;DHT22;800;48.824;9.346;2022-12-10T02:17:19;8.50;59.70
1614;DHT22;800;48.824;9.346;2022-12-10T02:22:17;8.50;59.80
1614;DHT22;800;48.824;9.346;2022-12-10T02:24:47;8.50;59.90
1614;DHT22;800;48.824;9.346;2022-12-10T02:29:59;8.40;59.90
1614;DHT22;800;48.824;9.346;2022-12-10T02:32:31;8.50;59.90
1614;DHT22;800;48.824;9.346;2022-12-10T02:35:01;8.50;59.80
1614;DHT22;800;48.824;9.346;2022-12-10T02:37:34;8.50;59.60
1614;DHT22;800;48.824;9.346;2022-12-10T02:40:06;8.50;59.60
1614;DHT22;800;48.824;9.346;2022-12-10T02:42:36;8.50;59.80
1614;DHT22;800;48.824;9.346;2022-12-10T02:45:04;8.50;59.80
1614;DHT22;800;48.824;9.346;2022-12-10T02:47:30;8.50;59.70
1614;DHT22;800;48.824;9.346;2022-12-10T02:49:58;8.50;59.90
1614;DHT22;800;48.824;9.346;2022-12-10T02:52:24;8.50;59.90
1614;DHT22;800;48.824;9.346;2022-12-10T02:54:50;8.50;59.90
1614;DHT22;800;48.824;9.346;2022-12-10T02:57:36;8.50;60.80
1614;DHT22;800;48.824;9.346;2022-12-10T03:00:08;8.50;60.20
1614;DHT22;800;48.824;9.346;2022-12-10T03:05:24;8.50;60.40
1614;DHT22;800;48.824;9.346;2022-12-10T03:08:02;8.40;60.50
1614;DHT22;800;48.824;9.346;2022-12-10T03:10:33;8.40;60.70
1614;DHT22;800;48.824;9.346;2022-12-10T03:13:03;8.40;60.80
1614;DHT22;800;48.824;9.346;2022-12-10T03:15:34;8.40;60.80
1614;DHT22;800;48.824;9.346;2022-12-10T03:18:05;8.40;60.60
1614;DHT22;800;48.824;9.346;2022-12-10T03:20:33;8.40;60.30
1614;DHT22;800;48.824;9.346;2022-12-10T03:22:59;8.40;60.40
1614;DHT22;800;48.824;9.346;2022-12-10T03:25:28;8.40;60.60
1614;DHT22;800;48.824;9.346;2022-12-10T03:27:56;8.40;60.80
1614;DHT22;800;48.824;9.346;2022-12-10T03:30:24;8.40;60.60
1614;DHT22;800;48.824;9.346;2022-12-10T03:32:50;8.40;60.40
1614;DHT22;800;48.824;9.346;2022-12-10T03:35:17;8.40;60.30
1614;DHT22;800;48.824;9.346;2022-12-10T03:37:44;8.40;60.20
1614;DHT22;800;48.824;9.346;2022-12-10T03:40:11;8.40;60.20
1614;DHT22;800;48.824;9.346;2022-12-10T03:42:38;8.40;60.30
1614;DHT22;800;48.824;9.346;2022-12-10T03:45:04;8.40;60.20
1614;DHT22;800;48.824;9.346;2022-12-10T03:47:30;8.30;60.20
1614;DHT22;800;48.824;9.346;2022-12-10T03:49:56;8.40;60.30
1614;DHT22;800;48.824;9.346;2022-12-10T03:52:21;8.30;60.10
1614;DHT22;800;48.824;9.346;2022-12-10T03:54:47;8.30;59.90
1614;DHT22;800;48.824;9.346;2022-12-10T03:57:13;8.30;59.80
1614;DHT22;800;48.824;9.346;2022-12-10T03:59:38;8.30;59.90
1614;DHT22;800;48.824;9.346;2022-12-10T04:02:04;8.30;61.00
1614;DHT22;800;48.824;9.346;2022-12-10T04:04:30;8.30;60.40
1614;DHT22;800;48.824;9.346;2022-12-10T04:06:55;8.30;60.60
1614;DHT22;800;48.824;9.346;2022-12-10T04:09:21;8.30;60.80
1614;DHT22;800;48.824;9.346;2022-12-10T04:11:47;8.30;60.90
1614;DHT22;800;48.824;9.346;2022-12-10T04:14:13;8.30;60.70
1614;DHT22;800;48.824;9.346;2022-12-10T04:16:57;8.30;60.60
1614;DHT22;800;48.824;9.346;2022-12-10T04:19:23;8.30;60.40
1614;DHT22;800;48.824;9.346;2022-12-10T04:21:49;8.30;60.40
1614;DHT22;800;48.824;9.346;2022-12-10T04:24:34;8.30;61.10
1614;DHT22;800;48.824;9.346;2022-12-10T04:27:25;8.30;60.30
1614;DHT22;800;48.824;9.346;2022-12-10T04:29:52;8.30;60.20
1614;DHT22;800;48.824;9.346;2022-12-10T04:32:18;8.30;60.30
1614;DHT22;800;48.824;9.346;2022-12-10T04:34:44;8.30;60.20
1614;DHT22;800;48.824;9.346;2022-12-10T04:37:09;8.20;60.30
1614;DHT22;800;48.824;9.346;2022-12-10T04:39:37;8.30;60.50
1614;DHT22;800;48.824;9.346;2022-12-10T04:42:03;8.30;60.50
1614;DHT22;800;48.824;9.346;2022-12-10T04:44:29;8.30;60.70
1614;DHT22;800;48.824;9.346;2022-12-10T04:46:54;8.20;60.60
1614;DHT22;800;48.824;9.346;2022-12-10T04:49:21;8.30;60.60
1614;DHT22;800;48.824;9.346;2022-12-10T04:51:47;8.20;60.50
1614;DHT22;800;48.824;9.346;2022-12-10T04:54:13;8.30;60.40
1614;DHT22;800;48.824;9.346;2022-12-10T04:56:39;8.30;60.20
1614;DHT22;800;48.824;9.346;2022-12-10T04:59:05;8.20;59.90
1614;DHT22;800;48.824;9.346;2022-12-10T05:01:32;8.30;59.80
1614;DHT22;800;48.824;9.346;2022-12-10T05:04:00;8.30;59.50
1614;DHT22;800;48.824;9.346;2022-12-10T05:06:26;8.30;59.30
1614;DHT22;800;48.824;9.346;2022-12-10T05:08:52;8.30;59.20
1614;DHT22;800;48.824;9.346;2022-12-10T05:11:20;8.30;59.20
1614;DHT22;800;48.824;9.346;2022-12-10T05:13:46;8.20;58.90
1614;DHT22;800;48.824;9.346;2022-12-10T05:16:14;8.20;58.90
1614;DHT22;800;48.824;9.346;2022-12-10T05:18:40;8.30;59.00
1614;DHT22;800;48.824;9.346;2022-12-10T05:21:09;8.30;59.00
1614;DHT22;800;48.824;9.346;2022-12-10T05:23:43;8.30;58.90
1614;DHT22;800;48.824;9.346;2022-12-10T05:26:23;8.20;58.90
1614;DHT22;800;48.824;9.346;2022-12-10T05:28:54;8.20;58.80
1614;DHT22;800;48.824;9.346;2022-12-10T05:31:25;8.30;58.80
1614;DHT22;800;48.824;9.346;2022-12-10T05:33:52;8.20;58.60
1614;DHT22;800;48.824;9.346;2022-12-10T05:36:20;8.20;58.60
1614;DHT22;800;48.824;9.346;2022-12-10T05:38:47;8.20;58.50
1614;DHT22;800;48.824;9.346;2022-12-10T05:41:24;8.20;58.40
1614;DHT22;800;48.824;9.346;2022-12-10T05:43:50;8.20;58.30
1614;DHT22;800;48.824;9.346;2022-12-10T05:46:25;8.20;58.20
1614;DHT22;800;48.824;9.346;2022-12-10T05:48:51;8.20;58.20
1614;DHT22;800;48.824;9.346;2022-12-10T05:51:20;8.20;58.10
1614;DHT22;800;48.824;9.346;2022-12-10T05:53:46;8.20;58.10
1614;DHT22;800;48.824;9.346;2022-12-10T05:56:14;8.20;58.10
1614;DHT22;800;48.824;9.346;2022-12-10T05:58:42;8.20;58.00
1614;DHT22;800;48.824;9.346;2022-12-10T06:01:13;8.20;58.00
1614;DHT22;800;48.824;9.346;2022-12-10T06:03:39;8.20;58.00
1614;DHT22;800;48.824;9.346;2022-12-10T06:06:06;8.20;58.00
1614;DHT22;800;48.824;9.346;2022-12-10T06:08:32;8.20;58.00
1614;DHT22;800;48.824;9.346;2022-12-10T06:11:02;8.20;57.90
1614;DHT22;800;48.824;9.346;2022-12-10T06:13:28;8.10;57.80
1614;DHT22;800;48.824;9.346;2022-12-10T06:15:53;8.10;58.00
1614;DHT22;800;48.824;9.346;2022-12-10T06:18:19;8.10;58.50
1614;DHT22;800;48.824;9.346;2022-12-10T06:20:44;8.40;60.90
1614;DHT22;800;48.824;9.346;2022-12-10T06:23:10;8.70;61.90
1614;DHT22;800;48.824;9.346;2022-12-10T06:25:38;9.10;62.20
1614;DHT22;800;48.824;9.346;2022-12-10T06:28:04;9.30;61.50
1614;DHT22;800;48.824;9.346;2022-12-10T06:30:30;9.60;60.10
1614;DHT22;800;48.824;9.346;2022-12-10T06:32:56;9.70;58.90
1614;DHT22;800;48.824;9.346;2022-12-10T06:35:21;9.80;57.30
1614;DHT22;800;48.824;9.346;2022-12-10T06:37:48;9.90;56.30
1614;DHT22;800;48.824;9.346;2022-12-10T06:40:15;10.00;54.40
1614;DHT22;800;48.824;9.346;2022-12-10T06:42:40;9.90;54.50
1614;DHT22;800;48.824;9.346;2022-12-10T06:45:06;9.80;54.10
1614;DHT22;800;48.824;9.346;2022-12-10T06:47:32;9.70;54.00
1614;DHT22;800;48.824;9.346;2022-12-10T06:49:57;9.70;54.50
1614;DHT22;800;48.824;9.346;2022-12-10T06:52:23;9.80;54.90
1614;DHT22;800;48.824;9.346;2022-12-10T06:54:49;9.80;54.40
1614;DHT22;800;48.824;9.346;2022-12-10T06:57:14;9.90;54.20
1614;DHT22;800;48.824;9.346;2022-12-10T06:59:40;10.00;53.50
1614;DHT22;800;48.824;9.346;2022-12-10T07:02:07;10.00;53.00
1614;DHT22;800;48.824;9.346;2022-12-10T07:04:32;10.10;52.90
1614;DHT22;800;48.824;9.346;2022-12-10T07:06:58;10.20;53.10
1614;DHT22;800;48.824;9.346;2022-12-10T07:09:23;10.30;53.10
1614;DHT22;800;48.824;9.346;2022-12-10T07:11:49;10.40;52.70
1614;DHT22;800;48.824;9.346;2022-12-10T07:14:16;10.40;52.20
1614;DHT22;800;48.824;9.346;2022-12-10T07:16:42;10.40;51.60
1614;DHT22;800;48.824;9.346;2022-12-10T07:19:09;10.20;51.20
1614;DHT22;800;48.824;9.346;2022-12-10T07:21:37;10.10;51.60
1614;DHT22;800;48.824;9.346;2022-12-10T07:24:09;10.00;52.00
1614;DHT22;800;48.824;9.346;2022-12-10T07:26:37;9.90;53.00
1614;DHT22;800;48.824;9.346;2022-12-10T07:29:04;9.70;53.20
1614;DHT22;800;48.824;9.346;2022-12-10T07:31:30;9.60;53.60
1614;DHT22;800;48.824;9.346;2022-12-10T07:33:57;9.40;54.00
1614;DHT22;800;48.824;9.346;2022-12-10T07:36:24;9.40;54.40
1614;DHT22;800;48.824;9.346;2022-12-10T07:38:51;9.40;54.50
1614;DHT22;800;48.824;9.346;2022-12-10T07:41:17;9.30;54.60
1614;DHT22;800;48.824;9.346;2022-12-10T07:43:44;9.30;54.60
1614;DHT22;800;48.824;9.346;2022-12-10T07:46:16;9.30;54.50
1614;DHT22;800;48.824;9.346;2022-12-10T07:48:43;9.20;54.50
1614;DHT22;800;48.824;9.346;2022-12-10T07:51:10;9.10;54.80
1614;DHT22;800;48.824;9.346;2022-12-10T07:53:35;9.10;55.20
1614;DHT22;800;48.824;9.346;2022-12-10T07:56:01;9.10;55.20
1614;DHT22;800;48.824;9.346;2022-12-10T07:58:27;9.20;55.40
1614;DHT22;800;48.824;9.346;2022-12-10T08:00:53;9.20;55.90
1614;DHT22;800;48.824;9.346;2022-12-10T08:03:18;9.30;54.90
1614;DHT22;800;48.824;9.346;2022-12-10T08:05:44;9.20;54.80
1614;DHT22;800;48.824;9.346;2022-12-10T08:08:09;9.10;54.90
1614;DHT22;800;48.824;9.346;2022-12-10T08:10:36;9.10;54.90
1614;DHT22;800;48.824;9.346;2022-12-10T08:13:02;9.10;55.10
1614;DHT22;800;48.824;9.346;2022-12-10T08:15:28;9.10;55.20
1614;DHT22;800;48.824;9.346;2022-12-10T08:17:55;9.10;55.20
1614;DHT22;800;48.824;9.346;2022-12-10T08:20:21;9.10;55.40
1614;DHT22;800;48.824;9.346;2022-12-10T08:22:47;9.10;55.20
1614;DHT22;800;48.824;9.346;2022-12-10T08:25:12;9.10;55.40
1614;DHT22;800;48.824;9.346;2022-12-10T08:27:38;9.10;55.40
1614;DHT22;800;48.824;9.346;2022-12-10T08:30:04;9.00;55.20
1614;DHT22;800;48.824;9.346;2022-12-10T08:32:30;9.00;55.40
1614;DHT22;800;48.824;9.346;2022-12-10T08:34:55;9.00;55.40
1614;DHT22;800;48.824;9.346;2022-12-10T08:37:21;9.00;55.40
1614;DHT22;800;48.824;9.346;2022-12-10T08:39:47;9.00;55.30
1614;DHT22;800;48.824;9.346;2022-12-10T08:42:12;9.00;55.30
1614;DHT22;800;48.824;9.346;2022-12-10T08:44:38;9.00;55.40
1614;DHT22;800;48.824;9.346;2022-12-10T08:47:04;9.10;55.30
1614;DHT22;800;48.824;9.346;2022-12-10T08:49:29;9.20;55.30
1614;DHT22;800;48.824;9.346;2022-12-10T08:51:55;9.10;55.20
1614;DHT22;800;48.824;9.346;2022-12-10T08:54:21;9.20;55.50
1614;DHT22;800;48.824;9.346;2022-12-10T08:56:47;9.30;55.70
1614;DHT22;800;48.824;9.346;2022-12-10T08:59:12;9.40;55.50
1614;DHT22;800;48.824;9.346;2022-12-10T09:01:38;9.50;55.30
1614;DHT22;800;48.824;9.346;2022-12-10T09:04:04;9.50;55.60
1614;DHT22;800;48.824;9.346;2022-12-10T09:06:30;9.60;55.00
1614;DHT22;800;48.824;9.346;2022-12-10T09:08:56;9.80;54.90
1614;DHT22;800;48.824;9.346;2022-12-10T09:11:26;9.80;54.40
1614;DHT22;800;48.824;9.346;2022-12-10T09:13:52;9.90;54.00
1614;DHT22;800;48.824;9.346;2022-12-10T09:16:18;10.10;53.20
1614;DHT22;800;48.824;9.346;2022-12-10T09:18:44;10.20;53.10
1614;DHT22;800;48.824;9.346;2022-12-10T09:21:15;10.20;52.60
1614;DHT22;800;48.824;9.346;2022-12-10T09:23:42;10.20;52.60
1614;DHT22;800;48.824;9.346;2022-12-10T09:26:09;10.30;52.30
1614;DHT22;800;48.824;9.346;2022-12-10T09:28:36;10.30;52.10
1614;DHT22;800;48.824;9.346;2022-12-10T09:31:03;10.40;52.20
1614;DHT22;800;48.824;9.346;2022-12-10T09:33:29;10.30;51.70
1614;DHT22;800;48.824;9.346;2022-12-10T09:35:55;10.40;51.80
1614;DHT22;800;48.824;9.346;2022-12-10T09:38:21;10.40;51.90
1614;DHT22;800;48.824;9.346;2022-12-10T09:40:58;10.50;52.20
1614;DHT22;800;48.824;9.346;2022-12-10T09:43:43;10.60;52.20
1614;DHT22;800;48.824;9.346;2022-12-10T09:46:31;10.70;51.80
1614;DHT22;800;48.824;9.346;2022-12-10T09:49:13;10.70;51.30
1614;DHT22;800;48.824;9.346;2022-12-10T09:51:41;10.70;51.20
1614;DHT22;800;48.824;9.346;2022-12-10T09:56:50;10.70;50.70
1614;DHT22;800;48.824;9.346;2022-12-10T09:59:38;10.60;50.60
1614;DHT22;800;48.824;9.346;2022-12-10T10:02:29;10.50;50.50
1614;DHT22;800;48.824;9.346;2022-12-10T10:05:21;10.40;50.80
1614;DHT22;800;48.824;9.346;2022-12-10T10:07:48;10.50;51.20
1614;DHT22;800;48.824;9.346;2022-12-10T10:10:25;10.50;50.70
1614;DHT22;800;48.824;9.346;2022-12-10T10:12:54;10.50;50.70
1614;DHT22;800;48.824;9.346;2022-12-10T10:15:31;10.60;51.00
1614;DHT22;800;48.824;9.346;2022-12-10T10:18:04;10.70;50.60
1614;DHT22;800;48.824;9.346;2022-12-10T10:20:33;10.60;50.00
1614;DHT22;800;48.824;9.346;2022-12-10T10:23:00;10.50;49.70
1614;DHT22;800;48.824;9.346;2022-12-10T10:25:26;10.40;49.70
1614;DHT22;800;48.824;9.346;2022-12-10T10:27:52;10.30;50.70
1614;DHT22;800;48.824;9.346;2022-12-10T10:30:20;10.20;51.30
1614;DHT22;800;48.824;9.346;2022-12-10T10:32:51;10.10;51.40
1614;DHT22;800;48.824;9.346;2022-12-10T10:35:27;10.10;51.50
1614;DHT22;800;48.824;9.346;2022-12-10T10:38:01;10.10;51.80
1614;DHT22;800;48.824;9.346;2022-12-10T10:40:39;10.10;51.90
1614;DHT22;800;48.824;9.346;2022-12-10T10:43:06;10.20;51.90
1614;DHT22;800;48.824;9.346;2022-12-10T10:45:39;10.30;52.10
1614;DHT22;800;48.824;9.346;2022-12-10T10:48:13;10.30;51.50
1614;DHT22;800;48.824;9.346;2022-12-10T10:50:42;10.10;51.70
1614;DHT22;800;48.824;9.346;2022-12-10T10:53:32;10.10;52.20
1614;DHT22;800;48.824;9.346;2022-12-10T10:56:10;10.10;51.60
1614;DHT22;800;48.824;9.346;2022-12-10T10:58:55;10.10;51.60
1614;DHT22;800;48.824;9.346;2022-12-10T11:01:24;10.10;51.90
1614;DHT22;800;48.824;9.346;2022-12-10T11:03:58;10.10;52.10
1614;DHT22;800;48.824;9.346;2022-12-10T11:06:24;10.10;51.90
1614;DHT22;800;48.824;9.346;2022-12-10T11:08:54;10.10;51.40
1614;DHT22;800;48.824;9.346;2022-12-10T11:11:32;10.00;51.30
1614;DHT22;800;48.824;9.346;2022-12-10T11:14:30;10.10;51.70
1614;DHT22;800;48.824;9.346;2022-12-10T11:17:17;10.10;51.60
1614;DHT22;800;48.824;9.346;2022-12-10T11:19:53;10.10;51.10
1614;DHT22;800;48.824;9.346;2022-12-10T11:22:28;10.00;50.60
1614;DHT22;800;48.824;9.346;2022-12-10T11:24:53;10.00;50.80
1614;DHT22;800;48.824;9.346;2022-12-10T11:30:26;9.80;51.70
1614;DHT22;800;48.824;9.346;2022-12-10T11:35:49;9.70;52.30
1614;DHT22;800;48.824;9.346;2022-12-10T11:41:29;9.40;52.30
1614;DHT22;800;48.824;9.346;2022-12-10T11:44:12;9.20;52.30
1614;DHT22;800;48.824;9.346;2022-12-10T11:57:15;9.40;52.30
1614;DHT22;800;48.824;9.346;2022-12-10T11:59:51;9.60;52.40
1614;DHT22;800;48.824;9.346;2022-12-10T12:05:35;9.60;52.00
1614;DHT22;800;48.824;9.346;2022-12-10T12:08:30;9.60;52.30
1614;DHT22;800;48.824;9.346;2022-12-10T12:16:15;9.60;51.90
1614;DHT22;800;48.824;9.346;2022-12-10T12:21:22;9.60;51.90
1614;DHT22;800;48.824;9.346;2022-12-10T12:24:12;9.70;52.30
1614;DHT22;800;48.824;9.346;2022-12-10T12:26:49;9.70;52.00
1614;DHT22;800;48.824;9.346;2022-12-10T12:29:40;9.60;52.30
1614;DHT22;800;48.824;9.346;2022-12-10T12:32:20;9.80;52.20
1614;DHT22;800;48.824;9.346;2022-12-10T12:34:51;9.80;51.90
1614;DHT22;800;48.824;9.346;2022-12-10T12:37:21;9.90;52.20
1614;DHT22;800;48.824;9.346;2022-12-10T12:42:38;10.10;50.70
1614;DHT22;800;48.824;9.346;2022-12-10T12:47:56;10.10;50.70
1614;DHT22;800;48.824;9.346;2022-12-10T12:50:33;9.90;50.60
1614;DHT22;800;48.824;9.346;2022-12-10T12:53:03;9.90;50.50
1614;DHT22;800;48.824;9.346;2022-12-10T12:55:38;9.90;50.50
1614;DHT22;800;48.824;9.346;2022-12-10T13:00:42;10.00;49.50
1614;DHT22;800;48.824;9.346;2022-12-10T13:05:44;10.00;49.50
1614;DHT22;800;48.824;9.346;2022-12-10T13:13:34;9.80;50.60
1614;DHT22;800;48.824;9.346;2022-12-10T13:22:05;9.80;50.50
1614;DHT22;800;48.824;9.346;2022-12-10T13:37:33;9.70;50.60
1614;DHT22;800;48.824;9.346;2022-12-10T13:42:35;9.60;50.90
1614;DHT22;800;48.824;9.346;2022-12-10T13:47:50;9.50;51.60
1614;DHT22;800;48.824;9.346;2022-12-10T13:50:39;9.60;51.50
1614;DHT22;800;48.824;9.346;2022-12-10T13:55:53;9.60;50.70
1614;DHT22;800;48.824;9.346;2022-12-10T13:58:48;9.50;50.40
1614;DHT22;800;48.824;9.346;2022-12-10T14:07:32;9.60;50.80
1614;DHT22;800;48.824;9.346;2022-12-10T14:10:00;9.50;50.60
1614;DHT22;800;48.824;9.346;2022-12-10T14:12:38;9.50;50.50
1614;DHT22;800;48.824;9.346;2022-12-10T14:15:07;9.50;50.20
1614;DHT22;800;48.824;9.346;2022-12-10T14:17:39;9.50;49.80
1614;DHT22;800;48.824;9.346;2022-12-10T14:20:07;9.40;49.80
1614;DHT22;800;48.824;9.346;2022-12-10T14:22:53;9.40;49.80
1614;DHT22;800;48.824;9.346;2022-12-10T14:25:44;9.50;50.00
1614;DHT22;800;48.824;9.346;2022-12-10T14:28:15;9.50;50.00
1614;DHT22;800;48.824;9.346;2022-12-10T14:30:43;9.50;50.20
1614;DHT22;800;48.824;9.346;2022-12-10T14:33:13;9.40;50.20
1614;DHT22;800;48.824;9.346;2022-12-10T14:35:41;9.40;50.70
1614;DHT22;800;48.824;9.346;2022-12-10T14:38:19;9.40;51.10
1614;DHT22;800;48.824;9.346;2022-12-10T14:40:45;9.20;51.20
1614;DHT22;800;48.824;9.346;2022-12-10T14:43:22;9.10;51.60
1614;DHT22;800;48.824;9.346;2022-12-10T14:45:53;9.00;52.30
1614;DHT22;800;48.824;9.346;2022-12-10T14:48:22;8.90;52.70
1614;DHT22;800;48.824;9.346;2022-12-10T14:50:48;9.00;53.40
1614;DHT22;800;48.824;9.346;2022-12-10T14:53:20;9.00;53.10
1614;DHT22;800;48.824;9.346;2022-12-10T14:55:50;8.90;53.80
1614;DHT22;800;48.824;9.346;2022-12-10T15:00:50;8.70;54.40
1614;DHT22;800;48.824;9.346;2022-12-10T15:03:29;8.60;54.50
1614;DHT22;800;48.824;9.346;2022-12-10T15:06:01;8.50;54.70
1614;DHT22;800;48.824;9.346;2022-12-10T15:08:27;8.50;54.80
1614;DHT22;800;48.824;9.346;2022-12-10T15:10:58;8.40;55.00
1614;DHT22;800;48.824;9.346;2022-12-10T15:13:39;8.50;55.30
1614;DHT22;800;48.824;9.346;2022-12-10T15:16:06;8.50;55.40
1614;DHT22;800;48.824;9.346;2022-12-10T15:18:40;8.50;55.50
1614;DHT22;800;48.824;9.346;2022-12-10T15:21:20;8.60;55.50
1614;DHT22;800;48.824;9.346;2022-12-10T15:23:47;8.60;55.40
1614;DHT22;800;48.824;9.346;2022-12-10T15:28:41;8.50;55.80
1614;DHT22;800;48.824;9.346;2022-12-10T15:34:06;8.50;55.60
1614;DHT22;800;48.824;9.346;2022-12-10T15:41:49;8.30;55.30
1614;DHT22;800;48.824;9.346;2022-12-10T15:44:30;8.20;55.10
1614;DHT22;800;48.824;9.346;2022-12-10T15:47:03;8.10;54.90
1614;DHT22;800;48.824;9.346;2022-12-10T15:49:34;8.00;55.10
1614;DHT22;800;48.824;9.346;2022-12-10T15:51:59;8.10;55.10
1614;DHT22;800;48.824;9.346;2022-12-10T15:57:04;8.10;54.80
1614;DHT22;800;48.824;9.346;2022-12-10T15:59:35;8.10;55.20
1614;DHT22;800;48.824;9.346;2022-12-10T16:02:01;8.20;54.70
1614;DHT22;800;48.824;9.346;2022-12-10T16:04:28;8.20;54.50
1614;DHT22;800;48.824;9.346;2022-12-10T16:06:53;8.10;54.50
1614;DHT22;800;48.824;9.346;2022-12-10T16:09:19;8.00;54.50
1614;DHT22;800;48.824;9.346;2022-12-10T16:11:45;8.10;54.60
1614;DHT22;800;48.824;9.346;2022-12-10T16:14:11;8.00;54.50
1614;DHT22;800;48.824;9.346;2022-12-10T16:16:38;8.10;54.30
1614;DHT22;800;48.824;9.346;2022-12-10T16:19:10;8.10;54.30
1614;DHT22;800;48.824;9.346;2022-12-10T16:21:35;8.10;54.30
1614;DHT22;800;48.824;9.346;2022-12-10T16:24:01;8.00;54.40
1614;DHT22;800;48.824;9.346;2022-12-10T16:26:26;8.00;54.50
1614;DHT22;800;48.824;9.346;2022-12-10T16:28:52;7.90;54.60
1614;DHT22;800;48.824;9.346;2022-12-10T16:31:19;7.90;54.70
1614;DHT22;800;48.824;9.346;2022-12-10T16:33:45;7.90;54.60
1614;DHT22;800;48.824;9.346;2022-12-10T16:36:12;8.00;54.50
1614;DHT22;800;48.824;9.346;2022-12-10T16:38:39;8.00;54.50
1614;DHT22;800;48.824;9.346;2022-12-10T16:41:17;7.90;54.60
1614;DHT22;800;48.824;9.346;2022-12-10T16:43:44;7.90;54.60
1614;DHT22;800;48.824;9.346;2022-12-10T16:46:11;7.90;54.40
1614;DHT22;800;48.824;9.346;2022-12-10T16:48:37;7.90;54.50
1614;DHT22;800;48.824;9.346;2022-12-10T16:51:03;7.90;54.70
1614;DHT22;800;48.824;9.346;2022-12-10T16:53:29;7.80;54.60
1614;DHT22;800;48.824;9.346;2022-12-10T16:55:59;7.80;54.70
1614;DHT22;800;48.824;9.346;2022-12-10T16:58:25;7.80;55.10
1614;DHT22;800;48.824;9.346;2022-12-10T17:00:53;7.70;55.10
1614;DHT22;800;48.824;9.346;2022-12-10T17:03:21;7.70;55.20
1614;DHT22;800;48.824;9.346;2022-12-10T17:05:52;7.70;55.20
1614;DHT22;800;48.824;9.346;2022-12-10T17:08:18;7.70;55.20
1614;DHT22;800;48.824;9.346;2022-12-10T17:10:44;7.70;55.60
1614;DHT22;800;48.824;9.346;2022-12-10T17:13:29;7.60;55.60
1614;DHT22;800;48.824;9.346;2022-12-10T17:15:55;7.60;56.00
1614;DHT22;800;48.824;9.346;2022-12-10T17:18:22;7.80;55.90
1614;DHT22;800;48.824;9.346;2022-12-10T17:20:48;7.80;55.70
1614;DHT22;800;48.824;9.346;2022-12-10T17:23:13;7.80;55.70
1614;DHT22;800;48.824;9.346;2022-12-10T17:25:40;7.80;55.60
1614;DHT22;800;48.824;9.346;2022-12-10T17:28:15;7.80;55.60
1614;DHT22;800;48.824;9.346;2022-12-10T17:30:42;7.80;55.60
1614;DHT22;800;48.824;9.346;2022-12-10T17:33:20;7.80;55.60
1614;DHT22;800;48.824;9.346;2022-12-10T17:35:47;7.80;56.20
1614;DHT22;800;48.824;9.346;2022-12-10T17:38:23;7.80;55.60
1614;DHT22;800;48.824;9.346;2022-12-10T17:40:50;7.70;55.70
1614;DHT22;800;48.824;9.346;2022-12-10T17:43:16;7.70;56.00
1614;DHT22;800;48.824;9.346;2022-12-10T17:45:42;7.60;56.10
1614;DHT22;800;48.824;9.346;2022-12-10T17:48:15;7.50;56.70
1614;DHT22;800;48.824;9.346;2022-12-10T17:50:42;7.60;56.10
1614;DHT22;800;48.824;9.346;2022-12-10T17:53:09;7.70;56.20
1614;DHT22;800;48.824;9.346;2022-12-10T17:55:40;7.70;56.20
1614;DHT22;800;48.824;9.346;2022-12-10T17:58:07;7.70;56.00
1614;DHT22;800;48.824;9.346;2022-12-10T18:00:34;7.70;56.00
1614;DHT22;800;48.824;9.346;2022-12-10T18:03:00;7.70;56.20
1614;DHT22;800;48.824;9.346;2022-12-10T18:05:26;7.70;56.40
1614;DHT22;800;48.824;9.346;2022-12-10T18:07:53;7.60;56.40
1614;DHT22;800;48.824;9.346;2022-12-10T18:10:24;7.60;56.30
1614;DHT22;800;48.824;9.346;2022-12-10T18:12:51;7.70;56.30
1614;DHT22;800;48.824;9.346;2022-12-10T18:15:19;7.60;56.10
1614;DHT22;800;48.824;9.346;2022-12-10T18:17:46;7.60;56.40
1614;DHT22;800;48.824;9.346;2022-12-10T18:20:23;7.60;56.20
1614;DHT22;800;48.824;9.346;2022-12-10T18:22:50;7.60;55.90
1614;DHT22;800;48.824;9.346;2022-12-10T18:25:16;7.50;56.30
1614;DHT22;800;48.824;9.346;2022-12-10T18:27:42;7.50;56.30
1614;DHT22;800;48.824;9.346;2022-12-10T18:30:12;7.40;56.50
1614;DHT22;800;48.824;9.346;2022-12-10T18:32:40;7.20;56.80
1614;DHT22;800;48.824;9.346;2022-12-10T18:35:06;7.20;56.80
1614;DHT22;800;48.824;9.346;2022-12-10T18:37:31;7.20;56.90
1614;DHT22;800;48.824;9.346;2022-12-10T18:39:57;7.30;57.00
1614;DHT22;800;48.824;9.346;2022-12-10T18:42:22;7.40;56.80
1614;DHT22;800;48.824;9.346;2022-12-10T18:44:48;7.40;56.60
1614;DHT22;800;48.824;9.346;2022-12-10T18:47:14;7.50;56.50